Time;durP1;ratioP1;P1;durP2;ratioP2;P2;SDS_P1;SDS_P2;PMS_P1;PMS_P2;Temp;Humidity;BMP_temperature;BMP_pressure;BME280_temperature;BME280_humidity;BME280_pressure;Samples;Min_cycle;Max_cycle;Signal;HPM_P1;HPM_P2
2022/08/14 00:02:01;;;;;;;7.35;4.70;;;27.00;70.40;;;;;;5052895;28;20025;-64
2022/08/14 00:04:26;;;;;;;10.32;4.63;;;27.00;70.50;;;;;;5052616;28;20244;-64
2022/08/14 00:06:52;;;;;;;7.78;5.05;;;26.90;70.50;;;;;;5052202;28;20032;-64
2022/08/14 00:09:18;;;;;;;7.78;4.85;;;27.00;70.60;;;;;;5051594;28;20159;-63
2022/08/14 00:11:44;;;;;;;8.23;4.97;;;26.90;70.60;;;;;;5041884;28;20033;-64
2022/08/14 00:14:10;;;;;;;11.52;4.80;;;26.90;70.70;;;;;;5040291;28;20557;-64
2022/08/14 00:16:36;;;;;;;8.63;4.93;;;26.90;70.80;;;;;;5051197;28;20061;-63
2022/08/14 00:19:03;;;;;;;7.68;5.05;;;26.90;70.80;;;;;;5052044;28;20385;-63
2022/08/14 00:21:28;;;;;;;7.63;5.20;;;26.90;70.90;;;;;;5041814;28;20044;-64
2022/08/14 00:23:55;;;;;;;10.13;5.65;;;26.90;70.90;;;;;;5051136;28;20037;-64
2022/08/14 00:26:22;;;;;;;8.38;4.70;;;26.80;70.90;;;;;;5041066;28;20029;-64
2022/08/14 00:28:52;;;;;;;9.50;5.70;;;26.80;71.00;;;;;;5052062;28;20443;-64
2022/08/14 00:31:18;;;;;;;9.13;5.25;;;26.80;71.10;;;;;;5053150;28;20029;-64
2022/08/14 00:33:44;;;;;;;7.90;5.32;;;26.80;71.10;;;;;;5050790;28;20396;-63
2022/08/14 00:36:10;;;;;;;9.63;6.25;;;26.70;71.10;;;;;;5051799;28;20025;-64
2022/08/14 00:38:35;;;;;;;9.73;6.28;;;26.70;71.10;;;;;;5050798;28;20095;-63
2022/08/14 00:41:05;;;;;;;8.13;5.40;;;26.70;71.10;;;;;;5053336;28;20028;-64
2022/08/14 00:43:33;;;;;;;11.18;6.07;;;26.70;71.30;;;;;;5051066;28;20044;-64
2022/08/14 00:46:08;;;;;;;10.27;5.63;;;26.60;71.40;;;;;;5053235;28;20044;-64
2022/08/14 00:48:35;;;;;;;10.73;6.45;;;26.60;71.60;;;;;;5049784;28;20037;-63
2022/08/14 00:51:03;;;;;;;7.72;6.10;;;26.60;71.80;;;;;;5043283;28;20028;-64
2022/08/14 00:53:29;;;;;;;9.30;6.75;;;26.60;72.00;;;;;;5052033;28;20083;-64
2022/08/14 00:55:56;;;;;;;10.95;7.07;;;26.50;72.20;;;;;;5053083;28;20040;-63
2022/08/14 00:58:31;;;;;;;11.73;7.00;;;26.50;72.40;;;;;;5034742;28;20059;-63
2022/08/14 01:01:04;;;;;;;8.60;6.78;;;26.50;72.70;;;;;;5034034;28;20033;-64
2022/08/14 01:03:30;;;;;;;12.63;6.72;;;26.50;72.90;;;;;;5039746;28;20404;-63
2022/08/14 01:05:57;;;;;;;9.90;6.75;;;26.40;73.00;;;;;;5051725;28;20473;-63
2022/08/14 01:08:29;;;;;;;9.63;6.38;;;26.40;73.30;;;;;;5040336;28;20032;-63
2022/08/14 01:10:56;;;;;;;9.68;5.47;;;26.40;73.50;;;;;;5037326;28;20029;-63
2022/08/14 01:13:27;;;;;;;9.32;6.35;;;26.30;73.60;;;;;;5041406;28;20041;-63
2022/08/14 01:15:56;;;;;;;9.85;6.05;;;26.40;73.90;;;;;;5039592;28;20029;-63
2022/08/14 01:21:14;;;;;;;12.35;6.60;;;26.30;74.10;;;;;;5045986;28;20025;-63
2022/08/14 01:23:46;;;;;;;12.75;6.63;;;26.30;74.20;;;;;;5032826;28;20037;-63
2022/08/14 01:26:14;;;;;;;13.98;7.13;;;26.20;74.30;;;;;;5039886;28;20567;-63
2022/08/14 01:28:41;;;;;;;15.18;7.20;;;26.20;74.40;;;;;;5038613;28;20500;-63
2022/08/14 01:31:16;;;;;;;12.52;7.18;;;26.20;74.50;;;;;;5033252;28;20103;-63
2022/08/14 01:33:46;;;;;;;10.20;6.65;;;26.20;74.60;;;;;;5044597;28;20080;-63
2022/08/14 01:36:15;;;;;;;21.75;7.38;;;26.20;74.60;;;;;;5033369;28;20037;-64
2022/08/14 01:38:44;;;;;;;14.07;7.25;;;26.10;74.70;;;;;;5038424;28;20025;-63
2022/08/14 01:41:13;;;;;;;10.98;7.28;;;26.10;74.90;;;;;;5041371;28;20496;-63
2022/08/14 01:43:47;;;;;;;11.80;7.30;;;26.00;75.60;;;;;;5050628;28;20387;-63
2022/08/14 01:46:15;;;;;;;10.18;7.10;;;26.00;75.00;;;;;;5051522;28;20029;-63
2022/08/14 01:48:43;;;;;;;14.85;7.20;;;26.00;75.10;;;;;;5029918;28;20025;-63
2022/08/14 01:51:14;;;;;;;14.57;7.25;;;25.90;75.10;;;;;;5042722;28;20112;-63
2022/08/14 01:53:42;;;;;;;10.77;7.32;;;25.90;75.20;;;;;;5033258;28;20056;-63
2022/08/14 01:56:08;;;;;;;10.98;7.90;;;25.90;75.30;;;;;;5045328;28;20024;-63
2022/08/14 01:58:34;;;;;;;16.10;9.38;;;25.90;75.40;;;;;;5033201;28;20477;-63
2022/08/14 02:01:01;;;;;;;12.77;7.60;;;25.90;75.40;;;;;;5038580;28;20052;-63
2022/08/14 02:03:29;;;;;;;8.90;7.28;;;25.80;75.50;;;;;;5051877;28;20033;-63
2022/08/14 02:05:57;;;;;;;9.80;7.43;;;25.80;75.60;;;;;;5048386;28;20036;-63
2022/08/14 02:08:27;;;;;;;11.95;7.82;;;25.80;75.70;;;;;;5050440;28;20037;-63
2022/08/14 02:11:15;;;;;;;12.88;7.85;;;25.80;75.70;;;;;;5051055;28;20033;-63
2022/08/14 02:13:39;;;;;;;11.93;7.50;;;25.70;75.70;;;;;;5048512;28;20045;-63
2022/08/14 02:16:06;;;;;;;13.52;7.28;;;25.80;76.00;;;;;;5048349;28;20028;-63
2022/08/14 02:18:32;;;;;;;11.27;7.40;;;25.70;76.00;;;;;;5049475;28;20037;-63
2022/08/14 02:20:58;;;;;;;9.88;7.38;;;25.70;76.10;;;;;;5049513;28;20025;-63
2022/08/14 02:23:24;;;;;;;10.98;7.45;;;25.70;76.20;;;;;;5049197;28;20086;-63
2022/08/14 02:25:50;;;;;;;12.35;7.43;;;25.70;76.30;;;;;;5051669;28;20076;-63
2022/08/14 02:28:15;;;;;;;10.40;7.00;;;25.60;76.40;;;;;;5048791;28;20075;-63
2022/08/14 02:30:41;;;;;;;13.88;6.85;;;25.70;76.60;;;;;;5049558;28;20036;-63
2022/08/14 02:33:07;;;;;;;12.35;7.15;;;25.60;76.60;;;;;;5048843;28;20082;-64
2022/08/14 02:35:33;;;;;;;14.18;7.63;;;25.60;76.80;;;;;;5050778;28;20029;-63
2022/08/14 02:37:59;;;;;;;9.32;7.25;;;25.60;76.90;;;;;;5051809;28;20104;-63
2022/08/14 02:40:26;;;;;;;10.60;6.88;;;25.60;76.80;;;;;;5050144;28;20468;-63
2022/08/14 02:42:52;;;;;;;22.40;7.10;;;25.60;76.90;;;;;;5054000;28;20040;-63
2022/08/14 02:45:17;;;;;;;11.65;7.32;;;25.50;76.90;;;;;;5055156;28;20033;-64
2022/08/14 02:47:43;;;;;;;12.82;7.53;;;25.50;76.90;;;;;;5046779;28;20045;-63
2022/08/14 02:50:09;;;;;;;12.18;7.25;;;25.50;76.90;;;;;;5037695;28;20028;-63
2022/08/14 02:52:35;;;;;;;13.38;7.13;;;25.50;76.90;;;;;;5051228;28;20047;-64
2022/08/14 02:55:01;;;;;;;12.18;6.95;;;25.50;76.90;;;;;;5054579;28;20033;-63
2022/08/14 02:57:27;;;;;;;17.33;7.93;;;25.40;76.90;;;;;;5050104;28;20024;-63
2022/08/14 02:59:54;;;;;;;10.80;8.10;;;25.40;76.80;;;;;;5051653;28;20067;-63
2022/08/14 03:02:19;;;;;;;11.30;8.18;;;25.40;76.80;;;;;;5051113;28;20036;-63
2022/08/14 03:04:46;;;;;;;11.13;8.07;;;25.40;76.80;;;;;;5054053;28;20365;-63
2022/08/14 03:07:14;;;;;;;11.57;7.95;;;25.40;76.90;;;;;;5050330;28;20507;-63
2022/08/14 03:09:40;;;;;;;21.98;8.10;;;25.30;76.90;;;;;;5053715;28;20043;-63
2022/08/14 03:12:06;;;;;;;18.45;7.95;;;25.30;77.00;;;;;;5053883;28;20029;-63
2022/08/14 03:14:36;;;;;;;13.05;7.40;;;25.30;77.00;;;;;;5054842;28;20488;-63
2022/08/14 03:17:02;;;;;;;10.30;7.60;;;25.30;77.20;;;;;;5041869;28;20151;-63
2022/08/14 03:19:27;;;;;;;13.40;7.70;;;25.30;77.30;;;;;;5053523;28;20120;-63
2022/08/14 03:21:53;;;;;;;14.60;7.95;;;25.20;77.30;;;;;;5054347;28;20032;-63
2022/08/14 03:24:21;;;;;;;11.05;7.82;;;25.30;77.50;;;;;;5053439;28;20400;-63
2022/08/14 03:26:48;;;;;;;12.23;7.80;;;25.20;77.40;;;;;;5047634;28;20043;-63
2022/08/14 03:29:19;;;;;;;15.13;7.80;;;25.20;77.50;;;;;;5054526;28;20036;-63
2022/08/14 03:31:46;;;;;;;11.10;8.40;;;25.20;77.60;;;;;;5053525;28;20036;-63
2022/08/14 03:34:12;;;;;;;23.58;7.93;;;25.20;77.60;;;;;;5034899;28;20037;-63
2022/08/14 03:36:39;;;;;;;11.75;7.78;;;25.20;77.70;;;;;;5047959;28;20029;-63
2022/08/14 03:39:07;;;;;;;10.80;7.00;;;25.20;77.90;;;;;;5042553;28;20044;-63
2022/08/14 03:41:34;;;;;;;11.75;7.13;;;25.20;78.00;;;;;;5052505;28;20095;-63
2022/08/14 03:44:01;;;;;;;10.48;7.93;;;25.10;77.90;;;;;;5043497;28;20061;-63
2022/08/14 03:46:34;;;;;;;15.10;8.15;;;25.20;78.00;;;;;;5040679;28;20037;-63
2022/08/14 03:49:04;;;;;;;11.85;7.78;;;25.10;78.20;;;;;;5054120;28;20542;-63
2022/08/14 03:51:30;;;;;;;10.57;7.80;;;25.10;78.20;;;;;;5039754;28;20021;-63
2022/08/14 03:53:58;;;;;;;13.23;8.27;;;25.10;78.20;;;;;;5053371;28;20053;-63
2022/08/14 03:56:28;;;;;;;14.35;8.50;;;25.10;78.30;;;;;;5053986;28;20029;-63
2022/08/14 03:58:56;;;;;;;14.43;8.10;;;25.10;78.50;;;;;;5054109;28;20086;-63
2022/08/14 04:01:23;;;;;;;11.82;8.07;;;25.00;78.50;;;;;;5052602;28;20033;-63
2022/08/14 04:03:52;;;;;;;11.05;8.07;;;25.10;78.70;;;;;;5043648;28;20076;-63
2022/08/14 04:06:21;;;;;;;14.50;8.38;;;25.00;78.70;;;;;;5050727;28;20090;-63
2022/08/14 04:08:51;;;;;;;14.57;8.40;;;25.00;78.80;;;;;;5053129;28;20063;-63
2022/08/14 04:11:17;;;;;;;13.00;7.97;;;25.00;79.00;;;;;;5050137;28;20068;-63
2022/08/14 04:13:43;;;;;;;13.48;8.45;;;25.00;79.00;;;;;;5042366;28;20041;-63
2022/08/14 04:16:11;;;;;;;11.13;7.70;;;25.00;79.20;;;;;;5051446;28;20476;-63
2022/08/14 04:18:42;;;;;;;14.25;8.30;;;25.00;79.30;;;;;;5041661;28;20530;-63
2022/08/14 04:21:09;;;;;;;15.20;7.88;;;24.90;79.40;;;;;;5052078;28;20033;-63
2022/08/14 04:23:35;;;;;;;13.48;7.90;;;24.90;79.50;;;;;;5053361;28;20033;-63
2022/08/14 04:26:04;;;;;;;12.48;7.28;;;24.90;79.60;;;;;;5052743;28;20024;-63
2022/08/14 04:28:31;;;;;;;11.38;7.97;;;24.90;79.80;;;;;;5051774;28;20060;-63
2022/08/14 04:30:57;;;;;;;10.48;7.75;;;24.90;79.90;;;;;;5052741;28;20037;-63
2022/08/14 04:33:23;;;;;;;11.98;7.93;;;24.90;79.90;;;;;;5049871;28;20037;-63
2022/08/14 04:35:50;;;;;;;9.93;7.68;;;24.90;79.90;;;;;;5047431;28;20025;-63
2022/08/14 04:43:45;;;;;;;17.60;8.20;;;24.80;80.20;;;;;;5049901;28;20469;-63
2022/08/14 04:46:15;;;;;;;13.43;7.85;;;24.80;80.30;;;;;;5050421;28;20166;-63
2022/08/14 04:48:41;;;;;;;13.75;7.70;;;24.70;80.60;;;;;;5052177;28;20048;-63
2022/08/14 04:51:14;;;;;;;13.82;7.43;;;24.70;80.90;;;;;;5051338;28;20480;-63
2022/08/14 04:53:43;;;;;;;11.13;7.90;;;24.80;81.10;;;;;;5049418;28;20048;-63
2022/08/14 04:56:15;;;;;;;10.30;7.55;;;24.70;81.10;;;;;;5048242;28;20029;-63
2022/08/14 04:58:41;;;;;;;10.07;7.87;;;24.70;81.20;;;;;;5050448;28;20033;-63
2022/08/14 05:01:09;;;;;;;14.90;7.75;;;24.70;81.20;;;;;;5048807;28;20321;-63
2022/08/14 05:03:37;;;;;;;12.27;8.23;;;24.70;81.40;;;;;;5048156;28;20112;-63
2022/08/14 05:06:05;;;;;;;11.95;8.07;;;24.70;82.00;;;;;;5051545;28;20040;-63
2022/08/14 05:08:32;;;;;;;16.25;8.10;;;24.70;81.40;;;;;;5050564;28;20033;-63
2022/08/14 05:11:00;;;;;;;13.90;7.80;;;24.70;81.50;;;;;;5048545;28;20025;-63
2022/08/14 05:13:27;;;;;;;14.43;7.68;;;24.70;81.60;;;;;;5050791;28;20477;-63
2022/08/14 05:15:54;;;;;;;10.82;7.90;;;24.70;81.70;;;;;;5050625;28;20033;-63
2022/08/14 05:18:22;;;;;;;10.85;7.63;;;24.60;81.70;;;;;;5048671;28;20457;-63
2022/08/14 05:20:51;;;;;;;13.65;8.07;;;24.60;81.80;;;;;;5049754;28;20028;-63
2022/08/14 05:23:19;;;;;;;11.30;7.40;;;24.70;82.00;;;;;;5048509;28;20538;-63
2022/08/14 05:25:46;;;;;;;12.85;7.72;;;24.60;82.10;;;;;;5051330;28;20032;-63
2022/08/14 05:28:17;;;;;;;14.38;7.57;;;24.60;82.30;;;;;;5049533;28;20090;-63
2022/08/14 05:30:52;;;;;;;8.57;6.75;;;24.60;82.50;;;;;;5048168;28;20476;-63
2022/08/14 05:33:19;;;;;;;9.95;7.28;;;24.70;82.70;;;;;;5040299;28;20041;-63
2022/08/14 05:35:47;;;;;;;9.10;4.78;;;24.60;82.50;;;;;;5051934;28;20099;-64
2022/08/14 05:38:16;;;;;;;9.35;6.82;;;24.70;82.30;;;;;;5048917;28;20469;-66
2022/08/14 05:40:48;;;;;;;14.82;6.60;;;24.70;82.10;;;;;;5049117;28;20033;-65
2022/08/14 05:43:20;;;;;;;11.68;6.28;;;24.70;82.30;;;;;;5048461;28;20128;-66
2022/08/14 05:45:48;;;;;;;10.73;6.63;;;24.70;82.10;;;;;;5048830;28;20060;-66
2022/08/14 05:48:15;;;;;;;12.27;6.38;;;24.70;81.60;;;;;;5052963;28;20045;-66
2022/08/14 05:50:40;;;;;;;11.93;6.78;;;24.70;81.70;;;;;;5045773;28;20383;-65
2022/08/14 05:53:07;;;;;;;11.18;7.10;;;24.80;81.70;;;;;;5050300;28;20041;-65
2022/08/14 05:55:32;;;;;;;9.80;6.25;;;24.80;81.70;;;;;;5049654;28;20055;-66
2022/08/14 05:58:01;;;;;;;9.13;7.22;;;24.80;81.80;;;;;;5051988;28;20041;-65
2022/08/14 06:00:36;;;;;;;8.60;6.57;;;24.90;81.60;;;;;;5049718;28;20096;-66
2022/08/14 06:03:03;;;;;;;10.57;6.45;;;24.90;81.30;;;;;;5051478;28;20033;-74
2022/08/14 06:05:31;;;;;;;10.95;6.28;;;24.90;81.00;;;;;;5051011;28;20104;-66
2022/08/14 06:07:58;;;;;;;10.95;7.05;;;24.90;80.80;;;;;;5050806;28;20113;-66
2022/08/14 06:10:25;;;;;;;17.05;8.00;;;25.00;80.90;;;;;;5045651;28;20025;-65
2022/08/14 06:12:51;;;;;;;19.60;7.47;;;25.00;80.60;;;;;;5038045;28;20038;-66
2022/08/14 06:15:17;;;;;;;11.77;6.95;;;25.00;80.50;;;;;;5041890;28;20098;-66
2022/08/14 06:17:51;;;;;;;8.25;6.43;;;25.10;80.20;;;;;;5054912;28;20033;-66
2022/08/14 06:20:20;;;;;;;13.68;6.32;;;25.10;80.20;;;;;;5054595;28;20025;-66
2022/08/14 06:22:46;;;;;;;11.77;6.75;;;25.10;79.80;;;;;;5053711;28;20395;-66
2022/08/14 06:25:14;;;;;;;11.80;6.60;;;25.20;79.90;;;;;;5048942;28;20025;-66
2022/08/14 06:27:45;;;;;;;9.38;5.93;;;25.20;79.80;;;;;;5049326;28;20033;-66
2022/08/14 06:30:16;;;;;;;15.13;6.40;;;25.20;79.30;;;;;;5048196;28;20047;-66
2022/08/14 06:32:42;;;;;;;12.13;6.13;;;25.20;78.90;;;;;;5055114;28;20037;-66
2022/08/14 06:35:09;;;;;;;7.22;5.72;;;25.30;78.20;;;;;;5044225;28;20033;-66
2022/08/14 06:37:43;;;;;;;8.52;5.68;;;25.20;78.20;;;;;;5053247;28;20383;-66
2022/08/14 06:40:11;;;;;;;13.45;6.18;;;25.30;79.30;;;;;;5042304;28;20029;-66
2022/08/14 06:42:38;;;;;;;7.75;5.82;;;25.30;77.90;;;;;;5048787;28;20036;-66
2022/08/14 06:45:04;;;;;;;11.13;5.80;;;25.40;77.70;;;;;;5048493;28;20025;-66
2022/08/14 06:47:36;;;;;;;8.63;6.10;;;25.40;77.30;;;;;;5041750;28;20488;-66
2022/08/14 06:50:09;;;;;;;9.27;6.25;;;25.40;76.80;;;;;;5047639;28;20025;-66
2022/08/14 06:52:35;;;;;;;9.00;6.30;;;25.40;76.50;;;;;;5044271;28;20052;-66
2022/08/14 06:55:01;;;;;;;10.70;5.70;;;25.40;76.10;;;;;;5049391;28;20021;-66
2022/08/14 06:57:38;;;;;;;12.10;6.20;;;25.50;76.40;;;;;;5048440;28;20519;-66
2022/08/14 07:00:09;;;;;;;8.40;5.55;;;25.50;76.40;;;;;;5055138;28;20087;-66
2022/08/14 07:08:04;;;;;;;9.68;6.43;;;25.60;76.20;;;;;;5051057;28;20032;-66
2022/08/14 07:10:31;;;;;;;11.27;6.70;;;25.60;76.30;;;;;;5048418;28;20074;-66
2022/08/14 07:12:57;;;;;;;10.35;6.45;;;25.60;76.30;;;;;;5048640;28;20129;-66
2022/08/14 07:15:23;;;;;;;8.63;6.07;;;25.60;77.10;;;;;;5049741;28;20111;-65
2022/08/14 07:17:50;;;;;;;10.50;6.28;;;25.70;76.50;;;;;;5049360;28;20029;-65
2022/08/14 07:20:19;;;;;;;8.77;6.43;;;25.70;76.60;;;;;;5052674;28;20492;-65
2022/08/14 07:22:48;;;;;;;11.38;6.47;;;25.70;76.60;;;;;;5048713;28;20025;-66
2022/08/14 07:25:14;;;;;;;7.35;5.40;;;25.70;76.90;;;;;;5050824;28;20037;-66
2022/08/14 07:27:41;;;;;;;12.88;5.65;;;25.80;77.00;;;;;;5048461;28;20027;-66
2022/08/14 07:30:07;;;;;;;19.45;6.68;;;25.90;77.20;;;;;;5052400;28;20029;-66
2022/08/14 07:32:33;;;;;;;9.40;5.63;;;25.90;76.80;;;;;;5049903;28;20017;-67
2022/08/14 07:34:59;;;;;;;7.13;5.65;;;25.90;76.60;;;;;;5050218;28;20472;-66
2022/08/14 07:37:25;;;;;;;7.50;5.28;;;26.00;76.90;;;;;;5052385;28;20415;-66
2022/08/14 07:39:50;;;;;;;6.95;5.07;;;26.00;76.90;;;;;;5047479;28;20025;-66
2022/08/14 07:42:16;;;;;;;10.85;4.60;;;26.00;76.50;;;;;;5049938;28;20499;-66
2022/08/14 07:44:42;;;;;;;10.10;5.50;;;26.10;75.90;;;;;;5050330;28;20059;-66
2022/08/14 07:47:07;;;;;;;7.82;5.53;;;26.10;75.70;;;;;;5050526;28;20028;-66
2022/08/14 07:49:34;;;;;;;6.82;5.05;;;26.20;75.90;;;;;;5050417;28;20415;-66
2022/08/14 07:52:03;;;;;;;7.47;5.28;;;26.20;75.60;;;;;;5050482;28;20100;-67
2022/08/14 07:54:30;;;;;;;12.00;5.40;;;26.20;76.20;;;;;;5047739;28;20041;-64
2022/08/14 07:56:59;;;;;;;8.80;5.53;;;26.30;76.30;;;;;;5049094;28;20056;-64
2022/08/14 07:59:26;;;;;;;10.25;4.80;;;26.30;76.30;;;;;;5044842;28;20060;-65
2022/08/14 08:01:52;;;;;;;9.32;4.90;;;26.40;75.80;;;;;;5051044;28;20033;-64
2022/08/14 08:04:27;;;;;;;9.07;4.68;;;26.40;75.60;;;;;;5050039;28;20040;-64
2022/08/14 08:06:54;;;;;;;6.78;4.78;;;26.40;75.40;;;;;;5048671;28;20040;-64
2022/08/14 08:09:25;;;;;;;7.28;4.45;;;26.50;75.40;;;;;;5048525;28;20033;-66
2022/08/14 08:11:51;;;;;;;6.90;4.78;;;26.50;75.00;;;;;;5048869;28;20078;-65
2022/08/14 08:14:18;;;;;;;7.07;4.93;;;26.60;75.50;;;;;;5049609;28;20403;-65
2022/08/14 08:16:48;;;;;;;6.65;4.63;;;26.60;75.50;;;;;;5049322;28;20028;-65
2022/08/14 08:19:17;;;;;;;12.52;4.90;;;26.70;75.30;;;;;;5046895;28;20184;-65
2022/08/14 08:21:44;;;;;;;7.35;4.90;;;26.70;74.80;;;;;;5049874;28;20044;-65
2022/08/14 08:24:10;;;;;;;6.97;4.50;;;26.70;74.80;;;;;;5050426;28;20029;-65
2022/08/14 08:26:38;;;;;;;7.05;4.93;;;26.80;74.80;;;;;;5050598;28;20369;-66
2022/08/14 08:29:05;;;;;;;8.57;5.07;;;26.80;74.90;;;;;;5047429;28;20029;-65
2022/08/14 08:31:30;;;;;;;10.40;5.05;;;26.90;75.10;;;;;;5048800;28;20345;-66
2022/08/14 08:34:02;;;;;;;8.18;4.57;;;26.90;74.80;;;;;;5048887;28;20047;-65
2022/08/14 08:36:40;;;;;;;8.85;5.07;;;26.90;74.70;;;;;;5051310;28;20048;-66
2022/08/14 08:39:05;;;;;;;12.13;4.85;;;26.90;74.50;;;;;;5052432;28;20033;-66
2022/08/14 08:41:46;;;;;;;4.28;3.00;;;27.00;74.90;;;;;;5052191;28;20028;-66
2022/08/14 08:44:13;;;;;;;5.45;4.43;;;27.10;74.70;;;;;;5042131;28;20024;-65
2022/08/14 08:46:41;;;;;;;7.03;4.13;;;27.10;74.70;;;;;;5039439;28;20059;-65
2022/08/14 08:49:09;;;;;;;7.00;4.60;;;27.10;74.20;;;;;;5052218;28;20025;-65
2022/08/14 08:51:40;;;;;;;11.45;4.80;;;27.10;74.10;;;;;;5049824;28;20095;-67
2022/08/14 08:54:12;;;;;;;5.18;3.78;;;27.20;74.50;;;;;;5034815;28;20045;-66
2022/08/14 08:56:39;;;;;;;6.32;4.80;;;27.30;74.20;;;;;;5040290;28;20044;-66
2022/08/14 08:59:30;;;;;;;6.07;4.57;;;27.30;74.20;;;;;;5043480;28;20031;-65
2022/08/14 09:02:01;;;;;;;6.38;4.35;;;27.40;74.50;;;;;;5044569;28;20029;-64
2022/08/14 09:04:29;;;;;;;9.75;4.80;;;27.40;74.20;;;;;;5051931;28;20044;-64
2022/08/14 09:06:58;;;;;;;9.77;4.50;;;27.40;74.10;;;;;;5052115;28;20021;-65
2022/08/14 09:09:29;;;;;;;6.93;4.60;;;27.40;73.90;;;;;;5048411;28;20026;-65
2022/08/14 09:11:56;;;;;;;9.35;4.63;;;27.50;73.90;;;;;;5044692;28;20040;-65
2022/08/14 09:14:26;;;;;;;8.43;4.50;;;27.50;73.80;;;;;;5043920;28;20045;-64
2022/08/14 09:16:52;;;;;;;6.85;4.13;;;27.60;73.40;;;;;;5040664;28;20155;-65
2022/08/14 09:19:19;;;;;;;7.38;4.10;;;27.60;73.20;;;;;;5042997;28;20518;-66
2022/08/14 09:21:46;;;;;;;9.57;4.80;;;27.70;73.20;;;;;;5044937;28;20029;-65
2022/08/14 09:24:13;;;;;;;7.60;4.30;;;27.70;72.90;;;;;;5051131;28;20416;-65
2022/08/14 09:26:40;;;;;;;4.50;3.72;;;27.70;72.80;;;;;;5048561;28;20107;-66
2022/08/14 09:29:07;;;;;;;6.40;3.83;;;27.80;72.60;;;;;;5038259;28;20453;-66
2022/08/14 09:31:36;;;;;;;6.22;4.00;;;27.80;72.50;;;;;;5047412;28;20112;-65
2022/08/14 09:34:25;;;;;;;6.97;4.28;;;27.90;72.50;;;;;;5039305;28;20037;-66
2022/08/14 09:37:06;;;;;;;8.82;4.00;;;27.90;72.60;;;;;;5007636;28;20087;-65
2022/08/14 09:39:58;;;;;;;7.43;4.50;;;28.00;73.00;;;;;;5040017;28;20385;-65
2022/08/14 09:42:42;;;;;;;6.90;4.75;;;28.00;72.90;;;;;;5034665;28;20021;-65
2022/08/14 09:45:18;;;;;;;5.60;4.20;;;28.10;72.90;;;;;;5044483;28;20037;-64
2022/08/14 09:47:52;;;;;;;4.82;4.13;;;28.10;72.90;;;;;;5045619;28;20494;-65
2022/08/14 09:50:28;;;;;;;7.70;4.45;;;28.10;72.80;;;;;;5040220;28;20064;-65
2022/08/14 09:53:06;;;;;;;7.68;4.78;;;28.10;73.10;;;;;;5050052;28;20053;-65
2022/08/14 09:55:34;;;;;;;6.95;4.68;;;28.20;72.90;;;;;;5032593;28;20040;-66
2022/08/14 09:58:12;;;;;;;7.85;4.63;;;28.20;72.70;;;;;;5039189;28;20933;-65
2022/08/14 10:00:53;;;;;;;11.40;4.63;;;28.30;72.70;;;;;;5042579;28;20120;-65
2022/08/14 10:03:33;;;;;;;8.77;4.32;;;28.30;72.40;;;;;;5050041;28;20086;-65
2022/08/14 10:06:10;;;;;;;5.93;4.22;;;28.30;72.60;;;;;;5049870;28;20036;-66
2022/08/14 10:08:49;;;;;;;10.07;4.55;;;28.30;72.60;;;;;;5045835;28;20033;-65
2022/08/14 10:11:22;;;;;;;6.47;4.68;;;28.40;72.70;;;;;;5042805;28;20036;-65
2022/08/14 10:13:53;;;;;;;;;;;28.40;72.40;;;;;;5051337;28;20044;-65
2022/08/14 10:16:25;;;;;;;13.63;4.25;;;28.40;73.00;;;;;;5051228;28;19912;-65
2022/08/14 10:19:22;;;;;;;6.53;4.53;;;28.50;72.20;;;;;;5050984;28;20059;-65
2022/08/14 10:22:01;;;;;;;6.93;4.97;;;28.50;72.30;;;;;;5025651;28;20048;-66
2022/08/14 10:24:30;;;;;;;8.20;4.82;;;28.60;72.10;;;;;;5049560;28;20461;-65
2022/08/14 10:27:01;;;;;;;6.60;4.55;;;28.60;72.00;;;;;;5051394;28;20043;-66
2022/08/14 10:29:32;;;;;;;5.05;4.20;;;28.60;71.80;;;;;;5043890;28;20113;-65
2022/08/14 10:31:58;;;;;;;6.88;4.85;;;28.70;71.70;;;;;;5031938;28;20132;-66
2022/08/14 10:34:39;;;;;;;6.43;4.72;;;28.70;71.70;;;;;;5031257;28;20037;-66
2022/08/14 10:37:10;;;;;;;2.90;2.60;;;28.80;71.50;;;;;;5046916;28;20029;-66
2022/08/14 10:39:38;;;;;;;7.68;4.40;;;28.70;72.00;;;;;;5051584;28;20029;-66
2022/08/14 10:42:10;;;;;;;5.32;4.50;;;28.90;71.80;;;;;;5049212;28;20502;-66
2022/08/14 10:44:39;;;;;;;6.82;5.10;;;28.80;71.50;;;;;;5051274;28;20032;-66
2022/08/14 10:47:09;;;;;;;6.03;4.25;;;28.90;71.60;;;;;;5049657;28;20052;-66
2022/08/14 10:49:48;;;;;;;6.47;4.40;;;28.90;71.10;;;;;;5044807;28;20095;-66
2022/08/14 10:52:20;;;;;;;6.68;4.57;;;29.00;71.70;;;;;;5043039;28;20021;-67
2022/08/14 10:54:47;;;;;;;7.38;4.22;;;29.10;71.60;;;;;;5042319;28;20476;-66
2022/08/14 10:57:12;;;;;;;5.57;4.55;;;29.00;71.20;;;;;;5044766;28;20036;-66
2022/08/14 10:59:44;;;;;;;7.07;4.45;;;29.10;71.20;;;;;;5042185;28;20043;-66
2022/08/14 11:02:20;;;;;;;6.40;4.25;;;29.10;70.70;;;;;;5048063;28;20029;-65
2022/08/14 11:05:13;;;;;;;8.25;4.18;;;29.20;70.60;;;;;;5044255;28;20033;-65
2022/08/14 11:07:53;;;;;;;9.25;4.15;;;29.20;71.10;;;;;;5045696;28;20029;-65
2022/08/14 11:10:19;;;;;;;9.45;4.20;;;29.30;70.50;;;;;;5047477;28;20068;-66
2022/08/14 11:12:48;;;;;;;6.45;4.32;;;29.30;70.80;;;;;;5045592;28;20388;-65
2022/08/14 11:15:17;;;;;;;9.35;4.35;;;29.30;70.40;;;;;;5048235;28;20033;-66
2022/08/14 11:17:47;;;;;;;6.45;4.97;;;29.40;69.90;;;;;;5046320;28;20369;-65
2022/08/14 11:20:16;;;;;;;9.60;5.13;;;29.40;70.90;;;;;;5052347;28;20037;-66
2022/08/14 11:22:42;;;;;;;7.43;4.25;;;29.40;70.90;;;;;;5046638;28;20123;-66
2022/08/14 11:25:14;;;;;;;7.30;4.25;;;29.40;70.30;;;;;;5049844;28;20033;-65
2022/08/14 11:27:43;;;;;;;7.47;4.82;;;29.50;71.10;;;;;;5048742;28;20036;-66
2022/08/14 11:30:15;;;;;;;12.57;4.68;;;29.50;70.60;;;;;;5048660;28;20505;-66
2022/08/14 11:32:47;;;;;;;9.35;4.55;;;29.50;70.20;;;;;;5050348;28;20033;-72
2022/08/14 11:35:20;;;;;;;11.13;4.40;;;29.60;69.70;;;;;;5052265;28;20079;-65
2022/08/14 11:38:00;;;;;;;;;;;29.60;69.10;;;;;;5053552;28;20028;-65
2022/08/14 11:40:37;;;;;;;5.82;4.00;;;29.60;71.00;;;;;;5051121;28;20000;-65
2022/08/14 11:43:07;;;;;;;3.97;3.13;;;29.70;69.40;;;;;;5052270;28;20124;-65
2022/08/14 11:45:35;;;;;;;7.10;4.50;;;29.70;70.20;;;;;;5052851;28;20112;-66
2022/08/14 11:48:12;;;;;;;6.95;3.97;;;29.70;69.40;;;;;;5048666;28;20029;-66
2022/08/14 11:50:38;;;;;;;7.00;4.43;;;29.80;69.30;;;;;;5046046;28;20426;-67
2022/08/14 11:53:21;;;;;;;6.18;4.28;;;29.80;69.20;;;;;;5047655;28;20052;-66
2022/08/14 11:55:53;;;;;;;7.63;4.28;;;29.90;68.90;;;;;;5053104;28;20036;-66
2022/08/14 11:58:25;;;;;;;7.70;4.68;;;29.90;68.00;;;;;;5045684;28;20034;-66
2022/08/14 12:00:58;;;;;;;6.60;4.40;;;30.00;68.70;;;;;;5043500;28;20048;-66
2022/08/14 12:03:41;;;;;;;5.78;3.38;;;30.00;67.60;;;;;;5053749;28;20029;-65
2022/08/14 12:06:12;;;;;;;8.77;4.57;;;30.00;67.80;;;;;;5041738;28;20040;-66
2022/08/14 12:08:39;;;;;;;6.80;3.78;;;30.10;68.10;;;;;;5050643;28;20040;-66
2022/08/14 12:11:06;;;;;;;8.60;4.45;;;30.10;68.60;;;;;;5048777;28;20022;-66
2022/08/14 12:13:33;;;;;;;10.98;3.42;;;30.20;68.40;;;;;;5044295;28;20052;-66
2022/08/14 12:16:02;;;;;;;7.22;4.28;;;30.20;68.60;;;;;;5053645;28;20055;-66
2022/08/14 12:18:33;;;;;;;7.88;4.22;;;30.30;67.80;;;;;;5051388;28;20064;-66
2022/08/14 12:21:16;;;;;;;6.30;4.10;;;30.30;67.30;;;;;;5050117;28;20116;-65
2022/08/14 12:23:42;;;;;;;6.75;4.07;;;30.40;69.60;;;;;;5052037;28;20035;-65
2022/08/14 12:26:13;;;;;;;7.15;4.20;;;30.40;68.50;;;;;;5051753;28;20076;-67
2022/08/14 12:28:39;;;;;;;8.73;4.45;;;30.40;67.50;;;;;;5047833;28;20056;-65
2022/08/14 12:31:15;;;;;;;6.70;4.10;;;30.40;67.30;;;;;;5052549;28;20456;-66
2022/08/14 12:33:41;;;;;;;8.32;4.43;;;30.50;67.40;;;;;;5044617;28;20036;-64
2022/08/14 12:36:09;;;;;;;9.45;4.28;;;30.60;66.90;;;;;;5050510;28;20357;-66
2022/08/14 12:38:44;;;;;;;7.65;4.75;;;30.50;66.70;;;;;;5049010;28;20395;-65
2022/08/14 12:41:16;;;;;;;13.20;3.72;;;30.60;66.00;;;;;;5050771;28;20017;-77
2022/08/14 12:43:46;;;;;;;8.65;4.55;;;30.70;67.50;;;;;;5045912;28;20030;-66
2022/08/14 12:46:26;;;;;;;8.07;4.70;;;30.80;66.70;;;;;;5041125;28;20069;-65
2022/08/14 12:48:52;;;;;;;8.25;4.35;;;30.80;66.50;;;;;;5047991;28;20104;-66
2022/08/14 12:51:21;;;;;;;7.18;4.43;;;30.90;66.20;;;;;;5051301;28;20032;-67
2022/08/14 12:53:48;;;;;;;7.82;4.30;;;30.90;67.00;;;;;;5041482;28;20076;-65
2022/08/14 12:56:20;;;;;;;5.20;4.50;;;31.00;66.70;;;;;;5044894;28;20056;-65
2022/08/14 12:58:57;;;;;;;6.03;4.40;;;31.00;65.60;;;;;;5047799;28;20483;-66
2022/08/14 13:01:26;;;;;;;13.23;4.85;;;31.00;65.50;;;;;;5049480;28;20074;-65
2022/08/14 13:04:07;;;;;;;6.72;4.18;;;31.10;66.30;;;;;;5044134;28;20034;-66
2022/08/14 13:06:37;;;;;;;7.93;4.35;;;31.10;66.00;;;;;;5038121;28;20086;-71
2022/08/14 13:09:04;;;;;;;8.18;4.53;;;31.20;65.20;;;;;;5050370;28;20472;-65